Time;durP1;ratioP1;P1;durP2;ratioP2;P2;SDS_P1;SDS_P2;PMS_P1;PMS_P2;Temp;Humidity;BMP_temperature;BMP_pressure;BME280_temperature;BME280_humidity;BME280_pressure;Samples;Min_cycle;Max_cycle;Signal;HPM_P1;HPM_P2
2024/04/23 00:00:05;;;;;;;4.40;1.00;;;;;;;;;;5302810;26;98744;-48
2024/04/23 00:02:30;;;;;;;3.60;0.77;;;;;;;;;;5241247;26;95927;-50
2024/04/23 00:04:55;;;;;;;2.40;0.70;;;;;;;;;;5267833;26;98850;-49
2024/04/23 00:07:21;;;;;;;2.88;0.70;;;;;;;;;;5266233;26;97673;-49
2024/04/23 00:09:48;;;;;;;2.15;0.80;;;;;;;;;;5267497;26;95603;-49
2024/04/23 00:12:14;;;;;;;3.13;0.70;;;;;;;;;;5269284;26;96052;-55
2024/04/23 00:14:39;;;;;;;4.85;0.80;;;;;;;;;;5267912;26;95991;-55
2024/04/23 00:17:05;;;;;;;1.77;0.60;;;;;;;;;;5272888;26;95815;-49
2024/04/23 00:19:30;;;;;;;4.60;0.93;;;;;;;;;;5246679;26;98540;-50
2024/04/23 00:21:56;;;;;;;2.88;0.85;;;;;;;;;;5268161;26;95876;-48
2024/04/23 00:24:21;;;;;;;2.63;0.65;;;;;;;;;;5233357;26;97082;-50
2024/04/23 00:26:58;;;;;;;4.38;1.20;;;;;;;;;;5257225;26;96609;-49
2024/04/23 00:29:24;;;;;;;4.05;0.65;;;;;;;;;;5290706;26;95851;-48
2024/04/23 00:31:50;;;;;;;5.05;1.30;;;;;;;;;;5270147;26;96697;-51
2024/04/23 00:34:16;;;;;;;4.05;1.33;;;;;;;;;;5320156;26;98856;-50
2024/04/23 00:36:51;;;;;;;5.82;1.73;;;;;;;;;;5265574;26;97330;-50
2024/04/23 00:39:16;;;;;;;3.70;0.95;;;;;;;;;;5268956;26;95423;-50
2024/04/23 00:41:41;;;;;;;4.50;1.08;;;;;;;;;;5266683;26;95591;-50
2024/04/23 00:44:07;;;;;;;3.92;1.20;;;;;;;;;;5266020;26;98400;-50
2024/04/23 00:46:35;;;;;;;2.58;0.88;;;;;;;;;;5265385;26;99613;-50
2024/04/23 00:49:00;;;;;;;4.28;1.00;;;;;;;;;;5266654;26;95675;-49
2024/04/23 00:51:26;;;;;;;4.25;0.85;;;;;;;;;;5264874;26;95826;-49
2024/04/23 00:53:51;;;;;;;3.28;0.70;;;;;;;;;;5263166;26;96057;-50
2024/04/23 00:56:19;;;;;;;4.80;0.80;;;;;;;;;;5265350;26;95370;-49
2024/04/23 00:58:45;;;;;;;4.22;1.17;;;;;;;;;;5299770;26;98585;-48
2024/04/23 01:01:10;;;;;;;1.67;0.60;;;;;;;;;;5269286;26;96243;-48
2024/04/23 01:03:36;;;;;;;2.83;0.90;;;;;;;;;;5265302;26;98331;-49
2024/04/23 01:06:01;;;;;;;5.30;1.02;;;;;;;;;;5263846;26;98740;-49
2024/04/23 01:08:26;;;;;;;3.17;0.90;;;;;;;;;;5299823;26;95640;-51
2024/04/23 01:10:52;;;;;;;4.63;1.00;;;;;;;;;;5292465;26;97928;-49
2024/04/23 01:13:17;;;;;;;2.88;0.85;;;;;;;;;;5263958;26;95947;-49
2024/04/23 01:15:44;;;;;;;3.30;0.90;;;;;;;;;;5260324;26;97882;-50
2024/04/23 01:18:09;;;;;;;5.35;1.00;;;;;;;;;;5264281;26;96474;-50
2024/04/23 01:20:35;;;;;;;3.33;0.88;;;;;;;;;;5263082;26;95848;-49
2024/04/23 01:23:17;;;;;;;4.07;0.70;;;;;;;;;;5255060;26;95934;-50
2024/04/23 01:25:45;;;;;;;4.00;1.00;;;;;;;;;;5262535;26;96166;-50
2024/04/23 01:28:12;;;;;;;3.95;1.23;;;;;;;;;;5262354;26;96046;-50
2024/04/23 01:30:37;;;;;;;5.00;1.35;;;;;;;;;;5265011;26;96553;-56
2024/04/23 01:33:05;;;;;;;6.15;1.15;;;;;;;;;;5289214;26;98702;-56
2024/04/23 01:35:31;;;;;;;3.42;1.00;;;;;;;;;;5265272;26;96289;-49
2024/04/23 01:37:57;;;;;;;4.30;1.20;;;;;;;;;;5263580;26;95898;-50
2024/04/23 01:40:22;;;;;;;7.35;4.07;;;;;;;;;;5299822;26;97804;-50
2024/04/23 01:42:49;;;;;;;4.15;1.25;;;;;;;;;;5249703;26;95843;-50
2024/04/23 01:45:15;;;;;;;3.92;1.33;;;;;;;;;;5238199;26;98891;-50
2024/04/23 01:47:44;;;;;;;6.50;2.30;;;;;;;;;;5262814;26;97930;-50
2024/04/23 01:50:11;;;;;;;3.85;1.02;;;;;;;;;;5260793;26;96082;-49
2024/04/23 01:52:36;;;;;;;3.97;1.25;;;;;;;;;;5238424;26;97256;-49
2024/04/23 01:55:02;;;;;;;9.68;1.00;;;;;;;;;;5262394;26;97340;-50
2024/04/23 01:57:28;;;;;;;4.25;0.80;;;;;;;;;;5263314;26;99097;-48
2024/04/23 01:59:59;;;;;;;7.30;2.35;;;;;;;;;;5243893;26;99260;-50
2024/04/23 02:02:25;;;;;;;2.55;0.60;;;;;;;;;;5265248;26;96218;-50
2024/04/23 02:04:51;;;;;;;3.20;1.20;;;;;;;;;;5307141;26;97525;-50
2024/04/23 02:07:17;;;;;;;2.30;0.90;;;;;;;;;;5236114;26;95711;-50
2024/04/23 02:09:45;;;;;;;4.60;0.77;;;;;;;;;;5299673;26;99342;-50
2024/04/23 02:12:14;;;;;;;3.45;0.82;;;;;;;;;;5293239;26;100985;-50
2024/04/23 02:14:40;;;;;;;2.83;0.90;;;;;;;;;;5262655;26;96890;-49
2024/04/23 02:17:06;;;;;;;5.93;1.30;;;;;;;;;;5263798;26;97328;-50
2024/04/23 02:19:31;;;;;;;3.38;0.85;;;;;;;;;;5244600;26;95849;-50
2024/04/23 02:21:57;;;;;;;2.97;1.10;;;;;;;;;;5254917;26;96163;-50
2024/04/23 02:24:22;;;;;;;3.95;0.80;;;;;;;;;;5262611;26;96160;-50
2024/04/23 02:26:48;;;;;;;3.97;0.93;;;;;;;;;;5248584;26;98635;-51
2024/04/23 02:29:13;;;;;;;3.40;1.50;;;;;;;;;;5306512;26;97951;-51
2024/04/23 02:31:38;;;;;;;6.07;1.27;;;;;;;;;;5289462;26;99059;-50
2024/04/23 02:34:04;;;;;;;3.15;0.88;;;;;;;;;;5234185;26;95771;-49
2024/04/23 02:36:29;;;;;;;5.97;1.55;;;;;;;;;;5252546;26;99050;-50
2024/04/23 02:38:55;;;;;;;9.70;2.22;;;;;;;;;;5261925;26;96644;-50
2024/04/23 02:41:21;;;;;;;5.70;1.10;;;;;;;;;;5263539;26;95770;-56
2024/04/23 02:43:46;;;;;;;4.20;1.13;;;;;;;;;;5238926;26;98491;-56
2024/04/23 02:46:12;;;;;;;5.97;1.50;;;;;;;;;;5250572;26;99092;-49
2024/04/23 02:48:37;;;;;;;4.20;1.00;;;;;;;;;;5266661;26;95787;-50
2024/04/23 02:51:02;;;;;;;4.82;1.10;;;;;;;;;;5262614;26;97685;-50
2024/04/23 02:53:28;;;;;;;6.05;1.10;;;;;;;;;;5262216;26;95830;-51
2024/04/23 02:55:53;;;;;;;5.60;1.17;;;;;;;;;;5246565;26;97078;-49
2024/04/23 02:58:18;;;;;;;7.15;1.10;;;;;;;;;;5295487;26;99390;-51
2024/04/23 03:00:44;;;;;;;4.30;1.08;;;;;;;;;;5235844;26;95848;-48
2024/04/23 03:03:09;;;;;;;2.90;1.30;;;;;;;;;;5232633;26;99023;-49
2024/04/23 03:05:34;;;;;;;2.78;0.68;;;;;;;;;;5256872;26;99034;-48
2024/04/23 03:08:00;;;;;;;3.33;1.15;;;;;;;;;;5262656;26;95945;-49
2024/04/23 03:10:25;;;;;;;4.47;0.90;;;;;;;;;;5267133;26;96386;-50
2024/04/23 03:12:51;;;;;;;2.00;0.77;;;;;;;;;;5262104;26;96136;-50
2024/04/23 03:15:16;;;;;;;2.97;0.95;;;;;;;;;;5244448;26;99229;-50
2024/04/23 03:17:41;;;;;;;6.20;1.08;;;;;;;;;;5291481;26;99529;-51
2024/04/23 03:20:07;;;;;;;2.97;0.90;;;;;;;;;;5291047;26;95914;-50
2024/04/23 03:22:33;;;;;;;5.35;1.42;;;;;;;;;;5264544;26;95964;-50
2024/04/23 03:24:58;;;;;;;4.00;1.40;;;;;;;;;;5233648;26;98683;-49
2024/04/23 03:27:24;;;;;;;4.25;1.30;;;;;;;;;;5291726;26;95665;-56
2024/04/23 03:29:49;;;;;;;4.72;1.42;;;;;;;;;;5243672;26;99179;-56
2024/04/23 03:32:17;;;;;;;5.05;1.70;;;;;;;;;;5290016;26;98623;-48
2024/04/23 03:34:42;;;;;;;5.30;1.60;;;;;;;;;;5263195;26;96478;-50
2024/04/23 03:37:08;;;;;;;4.82;1.50;;;;;;;;;;5256460;26;98546;-51
2024/04/23 03:39:33;;;;;;;3.97;1.33;;;;;;;;;;5263199;26;95880;-51
2024/04/23 03:42:00;;;;;;;3.58;1.20;;;;;;;;;;5262998;26;96171;-49
2024/04/23 03:44:26;;;;;;;3.83;1.13;;;;;;;;;;5245143;26;99002;-50
2024/04/23 03:46:52;;;;;;;4.03;1.38;;;;;;;;;;5255753;26;95964;-50
2024/04/23 03:49:18;;;;;;;3.30;1.00;;;;;;;;;;5297094;26;99704;-51
2024/04/23 03:51:43;;;;;;;2.85;1.15;;;;;;;;;;5248420;26;98707;-55
2024/04/23 03:54:09;;;;;;;5.85;1.10;;;;;;;;;;5263898;26;95420;-56
2024/04/23 03:56:34;;;;;;;3.20;0.90;;;;;;;;;;5262077;26;96328;-57
2024/04/23 03:59:00;;;;;;;2.42;0.80;;;;;;;;;;5226921;26;96827;-56
2024/04/23 04:01:25;;;;;;;4.78;1.45;;;;;;;;;;5260914;26;96166;-50
2024/04/23 04:06:35;;;;;;;7.05;1.20;;;;;;;;;;5260622;26;95780;-50
2024/04/23 04:09:00;;;;;;;2.28;1.15;;;;;;;;;;5261126;26;98065;-50
2024/04/23 04:11:31;;;;;;;5.43;1.27;;;;;;;;;;5264972;26;95734;-51
2024/04/23 04:13:57;;;;;;;6.30;1.48;;;;;;;;;;5267151;26;95577;-51
2024/04/23 04:16:23;;;;;;;4.20;1.45;;;;;;;;;;5264298;26;97431;-50
2024/04/23 04:18:49;;;;;;;3.08;0.90;;;;;;;;;;5264324;26;95729;-51
2024/04/23 04:21:15;;;;;;;9.82;1.30;;;;;;;;;;5265706;26;95993;-56
2024/04/23 04:23:40;;;;;;;7.25;1.77;;;;;;;;;;5237002;26;98945;-56
2024/04/23 04:26:10;;;;;;;4.95;2.30;;;;;;;;;;5264016;26;97535;-50
2024/04/23 04:28:35;;;;;;;4.57;1.17;;;;;;;;;;5258146;26;98649;-49
2024/04/23 04:31:01;;;;;;;6.70;2.20;;;;;;;;;;5264152;26;96128;-50
2024/04/23 04:33:26;;;;;;;3.40;1.30;;;;;;;;;;5265435;26;95768;-50
2024/04/23 04:35:52;;;;;;;5.93;1.25;;;;;;;;;;5268782;26;95904;-50
2024/04/23 04:38:17;;;;;;;3.53;1.60;;;;;;;;;;5306918;26;95957;-49
2024/04/23 04:40:43;;;;;;;5.30;1.48;;;;;;;;;;5296325;26;99370;-51
2024/04/23 04:43:08;;;;;;;3.85;1.30;;;;;;;;;;5265373;26;96539;-49
2024/04/23 04:45:33;;;;;;;8.30;1.75;;;;;;;;;;5232314;26;95801;-48
2024/04/23 04:47:59;;;;;;;5.40;1.00;;;;;;;;;;5294864;26;98638;-50
2024/04/23 04:50:24;;;;;;;4.18;1.50;;;;;;;;;;5265846;26;95936;-48
2024/04/23 04:52:49;;;;;;;4.70;1.40;;;;;;;;;;5263695;26;96153;-49
2024/04/23 04:55:15;;;;;;;21.52;2.25;;;;;;;;;;5265483;26;96140;-50
2024/04/23 04:57:40;;;;;;;7.97;1.98;;;;;;;;;;5296755;26;98695;-48
2024/04/23 05:00:06;;;;;;;8.07;1.98;;;;;;;;;;5261345;26;99534;-48
2024/04/23 05:02:31;;;;;;;3.58;1.58;;;;;;;;;;5255677;26;96478;-56
2024/04/23 05:04:57;;;;;;;4.50;1.40;;;;;;;;;;5283588;26;95938;-56
2024/04/23 05:07:22;;;;;;;4.25;1.27;;;;;;;;;;5255932;26;97235;-48
2024/04/23 05:09:48;;;;;;;2.58;1.15;;;;;;;;;;5254181;26;96206;-49
2024/04/23 05:12:16;;;;;;;5.43;1.65;;;;;;;;;;5232055;26;96010;-48
2024/04/23 05:14:43;;;;;;;13.05;1.83;;;;;;;;;;5290251;26;97633;-51
2024/04/23 05:17:08;;;;;;;6.03;1.50;;;;;;;;;;5257543;26;98243;-50
2024/04/23 05:19:33;;;;;;;2.63;1.35;;;;;;;;;;5284140;26;95911;-51
2024/04/23 05:21:58;;;;;;;3.85;2.10;;;;;;;;;;5256736;26;98472;-51
2024/04/23 05:24:24;;;;;;;7.03;1.80;;;;;;;;;;5261738;26;95755;-51
2024/04/23 05:26:49;;;;;;;27.60;2.45;;;;;;;;;;5257175;26;96146;-54
2024/04/23 05:29:14;;;;;;;7.85;1.70;;;;;;;;;;5249586;26;97362;-54
2024/04/23 05:34:24;;;;;;;4.45;1.45;;;;;;;;;;5251954;26;96426;-50
2024/04/23 05:36:49;;;;;;;9.57;2.80;;;;;;;;;;5251268;26;95967;-54
2024/04/23 05:39:14;;;;;;;4.00;1.02;;;;;;;;;;5259172;26;95846;-54
2024/04/23 05:41:40;;;;;;;4.82;1.58;;;;;;;;;;5268445;26;95960;-54
2024/04/23 05:44:05;;;;;;;4.25;1.42;;;;;;;;;;5294543;26;96267;-55
2024/04/23 05:46:31;;;;;;;4.78;1.60;;;;;;;;;;5252919;26;96300;-50
2024/04/23 05:49:35;;;;;;;6.07;1.95;;;;;;;;;;5264815;26;98722;-54
2024/04/23 05:52:38;;;;;;;8.60;2.30;;;;;;;;;;5280691;26;96126;-54
2024/04/23 05:55:29;;;;;;;5.22;2.05;;;;;;;;;;5262116;26;96275;-54
2024/04/23 05:57:55;;;;;;;7.97;2.45;;;;;;;;;;5251867;26;96647;-54
2024/04/23 06:00:20;;;;;;;6.90;3.35;;;;;;;;;;5229557;26;96000;-54
2024/04/23 06:02:46;;;;;;;5.60;2.30;;;;;;;;;;5252561;26;99042;-54
2024/04/23 06:05:11;;;;;;;6.28;2.50;;;;;;;;;;5262438;26;95678;-54
2024/04/23 06:07:36;;;;;;;14.93;2.90;;;;;;;;;;5261487;26;95885;-50
2024/04/23 06:10:02;;;;;;;4.65;2.13;;;;;;;;;;5253087;26;97217;-50
2024/04/23 06:12:28;;;;;;;6.97;2.28;;;;;;;;;;5257912;26;95994;-54
2024/04/23 06:14:53;;;;;;;3.58;2.08;;;;;;;;;;5246094;26;95896;-54
2024/04/23 06:17:19;;;;;;;8.55;2.55;;;;;;;;;;5255716;26;96005;-54
2024/04/23 06:19:49;;;;;;;5.03;2.80;;;;;;;;;;5262046;26;96009;-54
2024/04/23 06:22:19;;;;;;;9.38;2.63;;;;;;;;;;5261609;26;97325;-54
2024/04/23 06:24:47;;;;;;;7.65;2.67;;;;;;;;;;5248880;26;97146;-54
2024/04/23 06:27:22;;;;;;;8.77;2.50;;;;;;;;;;5256714;26;96248;-54
2024/04/23 06:30:09;;;;;;;6.65;2.45;;;;;;;;;;5261782;26;95899;-54
2024/04/23 06:32:39;;;;;;;8.75;3.45;;;;;;;;;;5256217;26;96025;-54
2024/04/23 06:35:06;;;;;;;5.80;3.25;;;;;;;;;;5259394;26;96164;-54
2024/04/23 06:37:32;;;;;;;8.45;3.20;;;;;;;;;;5259790;26;97860;-53
2024/04/23 06:39:57;;;;;;;8.30;3.58;;;;;;;;;;5276280;26;95906;-54
2024/04/23 06:42:23;;;;;;;5.72;3.35;;;;;;;;;;5262807;26;95987;-54
2024/04/23 06:44:48;;;;;;;7.60;3.95;;;;;;;;;;5262169;26;96003;-54
2024/04/23 06:47:13;;;;;;;12.93;3.72;;;;;;;;;;5265262;26;95873;-54
2024/04/23 06:49:40;;;;;;;9.18;4.70;;;;;;;;;;5302544;26;98917;-54
2024/04/23 06:52:08;;;;;;;12.10;4.82;;;;;;;;;;5262491;26;95698;-53
2024/04/23 06:54:34;;;;;;;7.85;5.38;;;;;;;;;;5237922;26;98630;-54
2024/04/23 06:56:59;;;;;;;10.32;5.03;;;;;;;;;;5281306;26;99268;-53
2024/04/23 06:59:25;;;;;;;22.02;6.25;;;;;;;;;;5256487;26;97458;-54
2024/04/23 07:01:50;;;;;;;10.82;5.70;;;;;;;;;;5252285;26;96799;-50
2024/04/23 07:04:16;;;;;;;13.68;5.78;;;;;;;;;;5237111;26;97301;-50
2024/04/23 07:06:41;;;;;;;11.88;6.75;;;;;;;;;;5262741;26;95755;-53
2024/04/23 07:09:07;;;;;;;8.75;5.85;;;;;;;;;;5265537;26;95887;-53
2024/04/23 07:11:32;;;;;;;16.73;7.10;;;;;;;;;;5239477;26;96141;-53
2024/04/23 07:13:58;;;;;;;13.68;6.75;;;;;;;;;;5294897;26;97328;-53
2024/04/23 07:16:23;;;;;;;11.00;6.45;;;;;;;;;;5286544;26;98582;-53
2024/04/23 07:18:48;;;;;;;12.68;7.60;;;;;;;;;;5261181;26;95792;-54
2024/04/23 07:21:14;;;;;;;13.90;7.53;;;;;;;;;;5260305;26;98092;-54
2024/04/23 07:23:39;;;;;;;13.77;7.40;;;;;;;;;;5259758;26;96336;-54
2024/04/23 07:26:04;;;;;;;11.65;8.10;;;;;;;;;;5262266;26;95711;-54
2024/04/23 07:28:30;;;;;;;13.60;8.88;;;;;;;;;;5261134;26;96532;-54
2024/04/23 07:30:57;;;;;;;13.15;8.68;;;;;;;;;;5260293;26;95881;-54
2024/04/23 07:33:22;;;;;;;15.55;10.13;;;;;;;;;;5261082;26;96018;-54
2024/04/23 07:35:48;;;;;;;17.25;9.70;;;;;;;;;;5254388;26;98676;-53
2024/04/23 07:38:13;;;;;;;14.65;9.82;;;;;;;;;;5259181;26;95942;-53
2024/04/23 07:40:41;;;;;;;15.27;10.40;;;;;;;;;;5291650;26;99069;-53
2024/04/23 07:43:07;;;;;;;14.60;10.13;;;;;;;;;;5249757;26;98924;-54
2024/04/23 07:45:32;;;;;;;18.40;10.07;;;;;;;;;;5262332;26;96030;-53
2024/04/23 07:47:58;;;;;;;17.52;11.20;;;;;;;;;;5251871;26;97103;-56
2024/04/23 07:50:23;;;;;;;15.93;11.02;;;;;;;;;;5258952;26;96005;-56
2024/04/23 07:52:49;;;;;;;18.65;11.55;;;;;;;;;;5239089;26;95499;-55
2024/04/23 07:55:14;;;;;;;24.75;10.93;;;;;;;;;;5259953;26;97303;-54
2024/04/23 07:57:46;;;;;;;16.80;10.98;;;;;;;;;;5262425;26;95663;-51
2024/04/23 08:00:20;;;;;;;16.55;9.82;;;;;;;;;;5262144;26;96083;-51
2024/04/23 08:02:52;;;;;;;15.05;9.73;;;;;;;;;;5226986;26;98603;-55
2024/04/23 08:05:17;;;;;;;15.27;9.05;;;;;;;;;;5276099;26;96032;-55
2024/04/23 08:07:42;;;;;;;15.73;9.32;;;;;;;;;;5261615;26;95943;-54
2024/04/23 08:10:10;;;;;;;13.55;8.88;;;;;;;;;;5259918;26;96770;-54
2024/04/23 08:12:36;;;;;;;12.93;9.70;;;;;;;;;;5260150;26;95877;-51
2024/04/23 08:15:01;;;;;;;15.63;10.02;;;;;;;;;;5227810;26;98714;-51
2024/04/23 08:17:27;;;;;;;18.05;10.45;;;;;;;;;;5247701;26;95714;-50
2024/04/23 08:19:52;;;;;;;15.75;10.10;;;;;;;;;;5253502;26;95943;-49
2024/04/23 08:22:18;;;;;;;15.13;10.18;;;;;;;;;;5240742;26;99113;-53
2024/04/23 08:24:43;;;;;;;49.42;12.05;;;;;;;;;;5262475;26;95618;-52
2024/04/23 08:27:08;;;;;;;21.17;12.10;;;;;;;;;;5264489;26;96000;-51
2024/04/23 08:29:34;;;;;;;21.65;11.93;;;;;;;;;;5246794;26;97461;-52
2024/04/23 08:31:59;;;;;;;14.20;9.90;;;;;;;;;;5245897;26;95704;-51
2024/04/23 08:34:24;;;;;;;18.17;11.57;;;;;;;;;;5240951;26;98644;-53
2024/04/23 08:36:50;;;;;;;14.70;10.18;;;;;;;;;;5287950;26;95907;-53
2024/04/23 08:39:16;;;;;;;16.92;10.68;;;;;;;;;;5291542;26;98631;-53
2024/04/23 08:41:41;;;;;;;13.02;8.80;;;;;;;;;;5261909;26;96625;-53
2024/04/23 08:44:08;;;;;;;14.25;8.10;;;;;;;;;;5235647;26;95870;-53
2024/04/23 08:46:33;;;;;;;11.20;7.43;;;;;;;;;;5279090;26;97086;-52
2024/04/23 08:49:00;;;;;;;11.80;7.60;;;;;;;;;;5248377;26;97358;-52
2024/04/23 08:51:26;;;;;;;12.02;6.80;;;;;;;;;;5294536;26;95916;-54
2024/04/23 08:53:53;;;;;;;11.80;7.20;;;;;;;;;;5299600;26;99196;-53
2024/04/23 08:56:23;;;;;;;10.23;6.45;;;;;;;;;;5243325;26;97243;-54
2024/04/23 08:58:49;;;;;;;6.63;4.95;;;;;;;;;;5287118;26;98651;-54
2024/04/23 09:01:27;;;;;;;8.77;6.20;;;;;;;;;;5289439;26;98739;-54
2024/04/23 09:03:55;;;;;;;8.60;5.75;;;;;;;;;;5264618;26;95744;-53
2024/04/23 09:06:24;;;;;;;8.27;5.63;;;;;;;;;;5261647;26;97450;-54
2024/04/23 09:08:50;;;;;;;10.75;5.63;;;;;;;;;;5250587;26;96004;-56
2024/04/23 09:11:16;;;;;;;6.30;4.40;;;;;;;;;;5258199;26;95819;-55
2024/04/23 09:13:42;;;;;;;6.72;4.53;;;;;;;;;;5260203;26;95987;-54
2024/04/23 09:16:07;;;;;;;7.13;4.07;;;;;;;;;;5282906;26;98778;-54
2024/04/23 09:18:32;;;;;;;7.05;4.10;;;;;;;;;;5296592;26;95856;-55
2024/04/23 09:20:59;;;;;;;7.57;4.10;;;;;;;;;;5256242;26;98584;-54
2024/04/23 09:23:31;;;;;;;5.95;3.58;;;;;;;;;;5254674;26;97735;-54
2024/04/23 09:26:00;;;;;;;4.40;3.45;;;;;;;;;;5252408;26;95698;-54
2024/04/23 09:28:26;;;;;;;6.00;3.33;;;;;;;;;;5298737;26;98978;-54
2024/04/23 09:30:51;;;;;;;6.25;3.17;;;;;;;;;;5295717;26;97777;-53
2024/04/23 09:33:24;;;;;;;6.88;3.10;;;;;;;;;;5233830;26;99711;-53
2024/04/23 09:36:09;;;;;;;8.90;4.88;;;;;;;;;;5287043;26;99011;-54
2024/04/23 09:38:39;;;;;;;11.15;4.65;;;;;;;;;;5252522;26;95771;-54
2024/04/23 09:41:06;;;;;;;13.55;4.53;;;;;;;;;;5258090;26;95972;-50
2024/04/23 09:43:32;;;;;;;7.05;3.53;;;;;;;;;;5293036;26;95645;-49
2024/04/23 09:45:58;;;;;;;7.20;3.63;;;;;;;;;;5232110;26;99747;-49
2024/04/23 09:48:34;;;;;;;18.02;10.77;;;;;;;;;;5242723;26;98682;-50
2024/04/23 09:51:00;;;;;;;17.02;6.63;;;;;;;;;;5261394;26;95705;-51
2024/04/23 09:53:32;;;;;;;26.75;13.55;;;;;;;;;;5265689;26;95909;-51
2024/04/23 09:56:02;;;;;;;50.08;21.95;;;;;;;;;;5265268;26;96052;-50
2024/04/23 09:58:34;;;;;;;1.67;0.52;;;;;;;;;;5272643;26;96275;-49
2024/04/23 10:01:00;;;;;;;15.70;6.47;;;;;;;;;;5251138;26;98900;-51
2024/04/23 10:03:27;;;;;;;1.70;0.80;;;;;;;;;;5266350;26;96638;-50
2024/04/23 10:06:06;;;;;;;3.13;0.70;;;;;;;;;;5265394;26;96334;-49
2024/04/23 10:08:50;;;;;;;3.03;0.80;;;;;;;;;;5264390;26;96014;-49
2024/04/23 10:11:26;;;;;;;34.83;3.53;;;;;;;;;;5263609;26;95839;-49
2024/04/23 10:13:54;;;;;;;8.07;0.85;;;;;;;;;;5256630;26;96788;-51
2024/04/23 10:16:29;;;;;;;2.95;0.63;;;;;;;;;;5261214;26;97233;-52
2024/04/23 10:18:59;;;;;;;2.53;0.75;;;;;;;;;;5256234;26;95984;-51
2024/04/23 10:21:27;;;;;;;1.98;0.70;;;;;;;;;;5255923;26;95923;-51
2024/04/23 10:23:54;;;;;;;2.63;0.70;;;;;;;;;;5266286;26;96052;-50
2024/04/23 10:26:22;;;;;;;2.15;0.70;;;;;;;;;;5299347;26;98530;-52
2024/04/23 10:28:48;;;;;;;1.85;0.75;;;;;;;;;;5262282;26;95969;-52
2024/04/23 10:31:14;;;;;;;3.08;0.60;;;;;;;;;;5262797;26;95778;-50
2024/04/23 10:33:41;;;;;;;1.55;0.50;;;;;;;;;;5232066;26;96988;-49
2024/04/23 10:36:08;;;;;;;1.45;0.50;;;;;;;;;;5263077;26;95470;-49
2024/04/23 10:38:35;;;;;;;2.92;0.50;;;;;;;;;;5263098;26;96455;-49
2024/04/23 10:41:00;;;;;;;1.27;0.30;;;;;;;;;;5237572;26;97599;-49
2024/04/23 10:43:27;;;;;;;1.33;0.43;;;;;;;;;;5238989;26;98680;-50
2024/04/23 10:45:52;;;;;;;2.15;0.45;;;;;;;;;;5233217;26;96020;-51
2024/04/23 10:48:25;;;;;;;2.53;0.70;;;;;;;;;;5231614;26;98676;-51
2024/04/23 10:50:56;;;;;;;5.63;0.50;;;;;;;;;;5263865;26;96190;-51
2024/04/23 10:53:22;;;;;;;1.45;0.40;;;;;;;;;;5261053;26;96119;-50
2024/04/23 10:55:51;;;;;;;1.75;0.40;;;;;;;;;;5263494;26;95968;-50
2024/04/23 10:58:18;;;;;;;2.87;0.40;;;;;;;;;;5262233;26;95539;-51
2024/04/23 11:00:44;;;;;;;22.23;1.00;;;;;;;;;;5255180;26;96024;-52
2024/04/23 11:03:15;;;;;;;1.98;0.50;;;;;;;;;;5242157;26;97434;-50
2024/04/23 11:05:46;;;;;;;2.10;0.40;;;;;;;;;;5249300;26;95933;-49
2024/04/23 11:08:23;;;;;;;4.97;0.30;;;;;;;;;;5266981;26;96789;-51
2024/04/23 11:11:01;;;;;;;1.77;0.30;;;;;;;;;;5304116;26;95813;-50
2024/04/23 11:13:38;;;;;;;1.30;0.30;;;;;;;;;;5269190;26;98804;-53
2024/04/23 11:16:17;;;;;;;10.05;0.57;;;;;;;;;;5260233;26;96007;-51
2024/04/23 11:18:49;;;;;;;4.97;0.40;;;;;;;;;;5311405;26;96119;-53
2024/04/23 11:21:27;;;;;;;0.68;0.20;;;;;;;;;;5263504;26;97126;-51
2024/04/23 11:23:53;;;;;;;1.80;0.60;;;;;;;;;;5247051;26;98931;-51
2024/04/23 11:26:22;;;;;;;2.28;0.38;;;;;;;;;;5253977;26;97607;-51
2024/04/23 11:28:48;;;;;;;3.20;0.30;;;;;;;;;;5272540;26;97489;-51
2024/04/23 11:31:14;;;;;;;1.27;0.30;;;;;;;;;;5246678;26;98892;-50
2024/04/23 11:33:40;;;;;;;1.80;0.30;;;;;;;;;;5241700;26;98673;-49
2024/04/23 11:36:06;;;;;;;3.15;0.90;;;;;;;;;;5278938;26;98803;-50
2024/04/23 11:38:42;;;;;;;1.25;0.40;;;;;;;;;;5255709;26;97925;-50
2024/04/23 11:41:09;;;;;;;2.10;0.57;;;;;;;;;;5250843;26;98712;-50
2024/04/23 11:43:35;;;;;;;5.25;1.20;;;;;;;;;;5293310;26;98921;-50
2024/04/23 11:46:01;;;;;;;3.08;1.00;;;;;;;;;;5284099;26;95942;-50
2024/04/23 11:48:26;;;;;;;4.63;1.00;;;;;;;;;;5263362;26;98097;-49
2024/04/23 11:50:54;;;;;;;2.63;0.57;;;;;;;;;;5241670;26;98649;-50
2024/04/23 11:53:19;;;;;;;1.83;0.40;;;;;;;;;;5285076;26;96063;-50
2024/04/23 11:55:46;;;;;;;1.52;0.20;;;;;;;;;;5248783;26;99014;-50
2024/04/23 11:58:13;;;;;;;0.93;0.35;;;;;;;;;;5291503;26;95856;-50
2024/04/23 12:00:39;;;;;;;2.33;0.20;;;;;;;;;;5260125;26;95925;-51
2024/04/23 12:03:06;;;;;;;1.65;0.30;;;;;;;;;;5298624;26;98360;-50
2024/04/23 12:05:32;;;;;;;1.15;0.20;;;;;;;;;;5261551;26;95750;-52
2024/04/23 12:07:58;;;;;;;2.35;0.30;;;;;;;;;;5262613;26;96177;-52
2024/04/23 12:10:29;;;;;;;4.10;0.40;;;;;;;;;;5227643;26;97853;-50
2024/04/23 12:12:54;;;;;;;2.70;0.35;;;;;;;;;;5253755;26;95571;-49
2024/04/23 12:15:19;;;;;;;7.57;0.68;;;;;;;;;;5229735;26;96707;-50
2024/04/23 12:17:45;;;;;;;2.58;0.30;;;;;;;;;;5274892;26;96121;-50
2024/04/23 12:20:11;;;;;;;3.33;0.82;;;;;;;;;;5225418;27;98866;-50
2024/04/23 12:22:36;;;;;;;2.05;0.40;;;;;;;;;;5254891;26;97469;-50
2024/04/23 12:25:02;;;;;;;1.17;0.30;;;;;;;;;;5283151;26;95735;-51
2024/04/23 12:27:27;;;;;;;0.70;0.30;;;;;;;;;;5226002;26;98701;-50
2024/04/23 12:30:06;;;;;;;1.83;0.30;;;;;;;;;;5282883;26;98741;-50
2024/04/23 12:32:31;;;;;;;5.43;0.45;;;;;;;;;;5223852;26;97926;-51
2024/04/23 12:34:57;;;;;;;0.90;0.30;;;;;;;;;;5282335;26;97242;-51
2024/04/23 12:37:22;;;;;;;1.33;0.28;;;;;;;;;;5225893;26;95639;-50
2024/04/23 12:39:51;;;;;;;3.55;0.43;;;;;;;;;;5229589;26;96088;-49
2024/04/23 12:42:19;;;;;;;2.90;0.82;;;;;;;;;;5229256;26;98888;-49
2024/04/23 12:44:44;;;;;;;8.27;0.68;;;;;;;;;;5279691;26;96270;-50
2024/04/23 12:47:10;;;;;;;1.73;0.30;;;;;;;;;;5224317;26;97930;-50
2024/04/23 12:49:37;;;;;;;1.40;0.38;;;;;;;;;;5255281;26;98871;-50
2024/04/23 12:52:02;;;;;;;0.88;0.30;;;;;;;;;;5220010;26;96162;-50
2024/04/23 12:54:27;;;;;;;2.00;0.93;;;;;;;;;;5276048;26;99013;-50
2024/04/23 12:56:53;;;;;;;1.83;0.40;;;;;;;;;;5232854;27;95997;-50
2024/04/23 12:59:18;;;;;;;3.20;0.30;;;;;;;;;;5221998;26;98188;-50
2024/04/23 13:01:44;;;;;;;1.02;0.45;;;;;;;;;;5225868;26;96907;-50
2024/04/23 13:04:09;;;;;;;4.82;0.63;;;;;;;;;;5230447;26;97564;-50
2024/04/23 13:06:36;;;;;;;0.93;0.30;;;;;;;;;;5228600;26;96086;-50
2024/04/23 13:09:02;;;;;;;0.90;0.30;;;;;;;;;;5229254;26;96149;-50
2024/04/23 13:11:27;;;;;;;2.55;0.32;;;;;;;;;;5256300;26;95548;-50
2024/04/23 13:13:53;;;;;;;1.77;0.45;;;;;;;;;;5259720;26;95955;-50
2024/04/23 13:16:18;;;;;;;1.80;0.40;;;;;;;;;;5286785;26;99149;-50
2024/04/23 13:18:43;;;;;;;1.00;0.30;;;;;;;;;;5280975;26;95618;-49
2024/04/23 13:21:09;;;;;;;0.70;0.30;;;;;;;;;;5289019;26;97417;-50
2024/04/23 13:23:34;;;;;;;0.95;0.40;;;;;;;;;;5261046;26;96091;-50
2024/04/23 13:25:59;;;;;;;1.27;0.43;;;;;;;;;;5239038;26;97882;-50
2024/04/23 13:28:25;;;;;;;1.05;0.40;;;;;;;;;;5263461;26;98676;-50
2024/04/23 13:30:54;;;;;;;5.45;0.40;;;;;;;;;;5288580;26;95864;-50
2024/04/23 13:33:19;;;;;;;1.93;0.33;;;;;;;;;;5262063;26;96089;-50
2024/04/23 13:35:44;;;;;;;3.35;1.17;;;;;;;;;;5292840;26;98749;-50
2024/04/23 13:38:10;;;;;;;1.13;0.40;;;;;;;;;;5298788;26;95937;-51
2024/04/23 13:40:35;;;;;;;0.73;0.30;;;;;;;;;;5261846;26;96704;-50
2024/04/23 13:43:00;;;;;;;2.63;0.50;;;;;;;;;;5251711;26;95852;-50
2024/04/23 13:45:26;;;;;;;2.03;0.30;;;;;;;;;;5257206;26;97003;-50
2024/04/23 13:47:51;;;;;;;1.67;0.30;;;;;;;;;;5255786;26;97921;-50
2024/04/23 13:50:16;;;;;;;1.15;0.30;;;;;;;;;;5297278;26;95857;-51
2024/04/23 13:52:43;;;;;;;0.57;0.30;;;;;;;;;;5280482;26;98969;-50
2024/04/23 13:55:08;;;;;;;1.75;0.30;;;;;;;;;;5291798;26;97254;-50
2024/04/23 13:57:36;;;;;;;2.20;0.43;;;;;;;;;;5275488;26;96321;-52
2024/04/23 14:00:02;;;;;;;3.45;0.40;;;;;;;;;;5258510;26;95951;-51
2024/04/23 14:02:28;;;;;;;0.85;0.30;;;;;;;;;;5255876;26;97722;-50
2024/04/23 14:04:55;;;;;;;2.28;0.20;;;;;;;;;;5249732;26;96067;-50
2024/04/23 14:07:20;;;;;;;2.70;0.57;;;;;;;;;;5260079;26;96688;-50
2024/04/23 14:09:46;;;;;;;1.88;0.30;;;;;;;;;;5292215;26;95602;-50
2024/04/23 14:12:11;;;;;;;2.90;0.40;;;;;;;;;;5304758;26;98543;-50
2024/04/23 14:14:37;;;;;;;1.35;0.30;;;;;;;;;;5246943;26;97341;-49
2024/04/23 14:17:03;;;;;;;3.03;0.40;;;;;;;;;;5235170;26;97296;-50
2024/04/23 14:19:33;;;;;;;2.33;0.30;;;;;;;;;;5263082;26;98667;-51
2024/04/23 14:21:59;;;;;;;0.90;0.40;;;;;;;;;;5234750;26;98839;-50
2024/04/23 14:24:24;;;;;;;1.95;0.40;;;;;;;;;;5312326;26;95845;-50
2024/04/23 14:26:49;;;;;;;0.95;0.30;;;;;;;;;;5218062;26;98950;-50
2024/04/23 14:29:15;;;;;;;11.13;0.88;;;;;;;;;;5262290;26;95860;-50
2024/04/23 14:31:40;;;;;;;1.65;0.40;;;;;;;;;;5261673;26;98164;-51
2024/04/23 14:34:05;;;;;;;5.05;0.50;;;;;;;;;;5303308;26;98655;-50
2024/04/23 14:36:31;;;;;;;1.55;0.40;;;;;;;;;;5251836;26;95807;-51
2024/04/23 14:38:56;;;;;;;1.88;0.40;;;;;;;;;;5297775;26;97746;-50
2024/04/23 14:41:21;;;;;;;3.90;0.30;;;;;;;;;;5256877;26;98894;-51
2024/04/23 14:43:50;;;;;;;3.92;0.65;;;;;;;;;;5266236;26;96732;-50